createdAt,value
2022-11-18T04:46:26.337Z,12.00
2022-11-18T04:48:53.281Z,12.10
2022-11-18T04:51:20.283Z,12.10
2022-11-18T04:53:47.474Z,12.30
2022-11-18T04:56:14.443Z,12.10
2022-11-18T04:58:41.386Z,12.20
2022-11-18T05:01:08.708Z,12.00
2022-11-18T05:03:35.776Z,12.00
2022-11-18T05:06:02.741Z,11.90
2022-11-18T05:08:29.758Z,11.80
2022-11-18T05:11:16.681Z,11.80
2022-11-18T05:13:43.629Z,11.80
2022-11-18T05:16:10.611Z,11.90
2022-11-18T05:18:37.640Z,11.90
2022-11-18T05:21:07.685Z,12.00
2022-11-18T05:23:34.782Z,12.10
2022-11-18T05:26:05.098Z,12.10
2022-11-18T05:28:32.405Z,12.00
2022-11-18T05:30:59.431Z,12.10
2022-11-18T05:33:26.437Z,12.10
2022-11-18T05:35:55.212Z,12.00
2022-11-18T05:38:22.414Z,12.10
2022-11-18T05:40:49.379Z,12.10
2022-11-18T05:43:16.319Z,12.00
2022-11-18T05:45:43.747Z,12.10
2022-11-18T05:48:10.717Z,12.00
2022-11-18T05:50:38.175Z,11.90
2022-11-18T05:53:05.211Z,11.70
2022-11-18T05:55:50.898Z,11.70
2022-11-18T05:58:17.902Z,11.70
2022-11-18T06:00:46.023Z,11.80
2022-11-18T06:03:16.802Z,11.60
2022-11-18T06:05:43.987Z,11.70
2022-11-18T06:08:11.581Z,11.70
2022-11-18T06:10:38.801Z,11.70
2022-11-18T06:13:06.688Z,12.00
2022-11-18T06:15:36.803Z,11.80
2022-11-18T06:18:23.276Z,11.70
2022-11-18T06:20:51.438Z,11.50
2022-11-18T06:23:18.588Z,11.40
2022-11-18T06:25:45.755Z,11.40
2022-11-18T06:28:13.924Z,11.50
2022-11-18T06:30:41.016Z,11.40
2022-11-18T06:33:08.485Z,11.40
2022-11-18T06:35:35.468Z,11.40
2022-11-18T06:38:02.496Z,11.30
2022-11-18T06:40:34.459Z,11.30
2022-11-18T06:43:24.002Z,11.40
2022-11-18T06:46:09.651Z,11.30
2022-11-18T06:48:36.642Z,11.30
2022-11-18T06:51:06.816Z,11.40
2022-11-18T06:53:35.222Z,11.40
2022-11-18T06:56:06.080Z,11.40
2022-11-18T06:58:33.436Z,11.30
2022-11-18T07:01:29.727Z,11.40
2022-11-18T07:03:58.255Z,11.30
2022-11-18T07:06:26.526Z,11.40
2022-11-18T07:08:53.825Z,11.40
2022-11-18T07:11:22.191Z,11.40
2022-11-18T07:13:49.198Z,11.40
2022-11-18T07:16:18.114Z,11.30
2022-11-18T07:18:45.713Z,11.30
2022-11-18T07:21:16.969Z,11.40
2022-11-18T07:23:44.394Z,11.40
2022-11-18T07:26:11.726Z,11.30
2022-11-18T07:28:38.798Z,11.40
2022-11-18T07:31:07.323Z,11.40
2022-11-18T07:33:34.891Z,11.40
2022-11-18T07:36:06.507Z,11.40
2022-11-18T07:38:33.533Z,11.40
2022-11-18T07:41:04.373Z,11.40
2022-11-18T07:43:32.288Z,11.40
2022-11-18T07:45:59.259Z,11.40
2022-11-18T07:48:26.202Z,11.40
2022-11-18T07:50:53.927Z,11.40
2022-11-18T07:53:20.962Z,11.50
2022-11-18T07:55:47.901Z,11.50
2022-11-18T07:58:14.956Z,11.30
2022-11-18T08:00:41.894Z,11.40
2022-11-18T08:03:12.477Z,11.50
2022-11-18T08:05:41.567Z,11.50
2022-11-18T08:08:08.661Z,11.50
2022-11-18T08:10:35.756Z,11.50
2022-11-18T08:13:02.795Z,11.50
2022-11-18T08:15:29.811Z,11.50
2022-11-18T08:17:56.735Z,11.60
2022-11-18T08:20:27.192Z,11.90
2022-11-18T08:22:54.253Z,11.60
2022-11-18T08:25:21.264Z,11.60
2022-11-18T08:27:48.201Z,11.70
2022-11-18T08:30:15.269Z,11.70
2022-11-18T08:32:42.218Z,11.70
2022-11-18T08:35:11.193Z,11.70
2022-11-18T08:37:38.480Z,11.70
2022-11-18T08:40:05.808Z,12.00
2022-11-18T08:42:34.472Z,11.80
2022-11-18T08:45:01.886Z,11.80
2022-11-18T08:47:29.666Z,11.90
2022-11-18T08:49:56.633Z,11.80
2022-11-18T08:52:23.680Z,11.80
2022-11-18T08:54:50.659Z,11.70
2022-11-18T08:57:17.644Z,11.70
2022-11-18T08:59:44.690Z,11.80
2022-11-18T09:02:13.745Z,11.60
2022-11-18T09:04:40.727Z,11.60
2022-11-18T09:07:07.801Z,11.70
2022-11-18T09:09:35.122Z,11.70
2022-11-18T09:12:02.243Z,11.60
2022-11-18T09:17:16.412Z,11.70
2022-11-18T09:19:48.087Z,11.80
2022-11-18T09:22:15.411Z,11.80
2022-11-18T09:24:43.526Z,11.80
2022-11-18T09:27:15.360Z,11.70
2022-11-18T09:29:44.394Z,11.70
2022-11-18T09:32:11.434Z,11.80
2022-11-18T09:34:38.436Z,11.90
2022-11-18T09:37:06.658Z,11.80
2022-11-18T09:39:35.942Z,11.70
2022-11-18T09:42:02.953Z,11.60
2022-11-18T09:44:51.309Z,11.50
2022-11-18T09:47:22.899Z,11.60
2022-11-18T09:49:49.879Z,11.70
2022-11-18T09:52:19.783Z,11.40
2022-11-18T09:54:46.971Z,11.50
2022-11-18T09:57:19.210Z,11.60
2022-11-18T09:59:46.480Z,11.70
2022-11-18T10:02:13.545Z,11.80
2022-11-18T10:04:40.564Z,12.00
2022-11-18T10:07:15.523Z,12.00
2022-11-18T10:09:43.380Z,12.10
2022-11-18T10:12:13.187Z,12.20
2022-11-18T10:14:45.331Z,12.20
2022-11-18T10:17:33.737Z,12.00
2022-11-18T10:20:03.421Z,11.90
2022-11-18T10:22:32.066Z,11.80
2022-11-18T10:25:00.874Z,11.80
2022-11-18T10:27:35.484Z,11.90
2022-11-18T10:30:02.616Z,11.80
2022-11-18T10:32:29.922Z,11.90
2022-11-18T10:34:58.317Z,11.90
2022-11-18T10:38:00.349Z,11.90
2022-11-18T10:40:26.841Z,12.00
2022-11-18T10:42:53.805Z,12.10
2022-11-18T10:45:28.804Z,12.20
2022-11-18T10:48:16.084Z,12.20
2022-11-18T10:50:47.236Z,12.30
2022-11-18T10:53:32.053Z,12.40
2022-11-18T10:56:00.217Z,12.40
2022-11-18T10:58:28.935Z,12.10
2022-11-18T11:01:05.093Z,12.00
2022-11-18T11:03:35.859Z,12.30
2022-11-18T11:06:21.536Z,12.20
2022-11-18T11:08:50.262Z,12.20
2022-11-18T11:11:28.687Z,12.20
2022-11-18T11:13:58.645Z,12.10
2022-11-18T11:16:27.146Z,12.10
2022-11-18T11:18:57.885Z,12.20
2022-11-18T11:21:27.381Z,12.20
2022-11-18T11:23:54.546Z,12.10
2022-11-18T11:29:37.950Z,12.00
2022-11-18T11:32:28.741Z,11.90
2022-11-18T11:34:55.700Z,11.90
2022-11-18T11:37:41.094Z,12.00
2022-11-18T11:40:17.385Z,12.10
2022-11-18T11:43:02.460Z,12.00
2022-11-18T11:45:38.373Z,12.00
2022-11-18T11:48:14.174Z,11.80
2022-11-18T11:51:03.048Z,11.80
2022-11-18T11:53:46.297Z,11.90
2022-11-18T11:56:28.373Z,12.00
2022-11-18T11:59:13.961Z,12.10
2022-11-18T12:01:59.608Z,12.10
2022-11-18T12:04:37.488Z,12.20
2022-11-18T12:07:06.448Z,12.20
2022-11-18T12:09:33.524Z,12.20
2022-11-18T12:12:26.318Z,12.20
2022-11-18T12:14:55.280Z,12.30
2022-11-18T12:17:24.908Z,12.30
2022-11-18T12:19:51.872Z,12.30
2022-11-18T12:22:18.844Z,12.30
2022-11-18T12:24:45.843Z,12.30
2022-11-18T12:27:14.468Z,12.30
2022-11-18T12:29:50.262Z,12.30
2022-11-18T12:32:46.911Z,12.30
2022-11-18T12:35:14.062Z,12.30
2022-11-18T12:37:53.039Z,12.30
2022-11-18T12:40:40.183Z,12.30
2022-11-18T12:43:45.771Z,12.30
2022-11-18T12:46:35.874Z,12.30
2022-11-18T12:49:21.271Z,12.30
2022-11-18T12:52:08.534Z,12.30
2022-11-18T12:54:35.517Z,12.30
2022-11-18T12:57:04.156Z,12.30
2022-11-18T12:59:35.734Z,12.30
2022-11-18T13:02:04.473Z,12.40
2022-11-18T13:04:31.565Z,12.30
2022-11-18T13:07:00.327Z,12.30
2022-11-18T13:09:30.246Z,12.40
2022-11-18T13:12:01.445Z,12.40
2022-11-18T13:14:50.881Z,12.40
2022-11-18T13:17:45.339Z,12.30
2022-11-18T13:20:27.648Z,12.20
2022-11-18T13:23:14.799Z,12.10
2022-11-18T13:25:45.058Z,11.90
2022-11-18T13:28:12.023Z,11.70
2022-11-18T13:30:46.376Z,11.70
2022-11-18T13:33:13.368Z,11.70
2022-11-18T13:35:40.813Z,11.80
2022-11-18T13:38:20.868Z,11.90
2022-11-18T13:41:14.894Z,11.90
2022-11-18T13:43:41.883Z,11.90
2022-11-18T13:46:16.217Z,11.90
2022-11-18T13:48:48.154Z,12.00
2022-11-18T13:51:15.135Z,12.00
2022-11-18T13:53:43.405Z,11.80
2022-11-18T13:56:19.070Z,11.80
2022-11-18T13:59:16.479Z,11.90
2022-11-18T14:01:43.993Z,11.90
2022-11-18T14:04:19.109Z,12.00
2022-11-18T14:06:46.173Z,12.00
2022-11-18T14:09:26.312Z,12.00
2022-11-18T14:12:11.878Z,12.00
2022-11-18T14:14:40.083Z,12.00
2022-11-18T14:17:18.942Z,11.90
2022-11-18T14:19:47.325Z,11.90
2022-11-18T14:22:22.137Z,11.90
2022-11-18T14:25:02.375Z,11.80
2022-11-18T14:27:49.429Z,11.70
2022-11-18T14:30:35.795Z,11.50
2022-11-18T14:33:03.756Z,11.50
2022-11-18T14:35:34.704Z,11.60
2022-11-18T14:38:35.507Z,11.60
2022-11-18T14:40:55.464Z,11.60
2022-11-18T14:43:22.853Z,11.70
2022-11-18T14:45:50.054Z,11.80
2022-11-18T14:48:19.957Z,11.60
2022-11-18T14:50:47.976Z,11.60
2022-11-18T14:53:15.011Z,11.60
2022-11-18T14:55:42.214Z,11.60
2022-11-18T14:58:13.401Z,11.60
2022-11-18T15:00:41.784Z,11.70
2022-11-18T15:03:09.035Z,11.70
2022-11-18T15:05:36.405Z,11.50
2022-11-18T15:08:03.502Z,11.50
2022-11-18T15:10:30.810Z,11.50
2022-11-18T15:12:57.743Z,11.60
2022-11-18T15:15:24.963Z,11.70
2022-11-18T15:17:54.098Z,11.70
2022-11-18T15:20:22.797Z,11.60
2022-11-18T15:22:49.745Z,11.70
2022-11-18T15:25:16.715Z,11.70
2022-11-18T15:27:43.821Z,11.70
2022-11-18T15:30:11.937Z,11.70
2022-11-18T15:32:38.966Z,11.70
2022-11-18T15:35:06.135Z,11.80
2022-11-18T15:37:33.147Z,11.80
2022-11-18T15:40:00.098Z,11.80
2022-11-18T15:42:27.106Z,11.80
2022-11-18T15:44:54.103Z,11.80
2022-11-18T15:47:21.287Z,11.80
2022-11-18T15:49:48.277Z,11.80
2022-11-18T15:52:15.317Z,11.70
2022-11-18T15:54:42.311Z,11.80
2022-11-18T15:57:09.232Z,11.80
2022-11-18T15:59:36.291Z,12.00
2022-11-18T16:02:03.413Z,11.80
2022-11-18T16:04:30.420Z,11.80
2022-11-18T16:06:58.340Z,11.80
2022-11-18T16:09:45.320Z,11.80
2022-11-18T16:12:30.643Z,11.80
2022-11-18T16:15:17.619Z,11.70
2022-11-18T16:17:44.683Z,11.60
2022-11-18T16:20:11.744Z,11.60
2022-11-18T16:22:38.759Z,11.70
2022-11-18T16:25:05.956Z,11.70
2022-11-18T16:27:34.545Z,11.70
2022-11-18T16:30:04.120Z,11.70
2022-11-18T16:32:31.159Z,11.70
2022-11-18T16:35:01.307Z,11.80
2022-11-18T16:37:28.727Z,11.70
2022-11-18T16:39:55.647Z,11.70
2022-11-18T16:42:22.600Z,11.70
2022-11-18T16:44:49.648Z,11.70
2022-11-18T16:47:16.667Z,11.60
2022-11-18T16:49:44.031Z,11.60
2022-11-18T16:52:11.363Z,11.60
2022-11-18T16:54:44.272Z,11.60
2022-11-18T16:57:12.563Z,11.60
2022-11-18T16:59:39.577Z,11.60
2022-11-18T17:02:06.924Z,11.60
2022-11-18T17:04:36.245Z,11.50
2022-11-18T17:07:03.726Z,11.50
2022-11-18T17:09:30.895Z,11.40
2022-11-18T17:12:01.057Z,11.60
2022-11-18T17:14:28.867Z,11.30
2022-11-18T17:16:56.279Z,11.30
2022-11-18T17:19:24.834Z,11.20
2022-11-18T17:21:52.093Z,11.10
2022-11-18T17:24:20.718Z,11.20
2022-11-18T17:26:48.541Z,11.20
2022-11-18T17:29:15.918Z,11.20
2022-11-18T17:31:43.257Z,11.10
2022-11-18T17:34:11.097Z,11.10
2022-11-18T17:36:38.168Z,11.30
2022-11-18T17:39:05.202Z,11.10
2022-11-18T17:41:50.568Z,11.10
2022-11-18T17:44:18.433Z,11.10
2022-11-18T17:46:47.054Z,11.10
2022-11-18T17:49:23.541Z,11.10
2022-11-18T17:51:53.692Z,11.20
2022-11-18T17:54:21.291Z,11.20
2022-11-18T17:56:49.888Z,11.30
2022-11-18T17:59:17.521Z,11.20
2022-11-18T18:01:47.690Z,11.20
2022-11-18T18:04:20.021Z,11.10
2022-11-18T18:06:48.939Z,11.10
2022-11-18T18:09:16.025Z,11.10
2022-11-18T18:11:42.975Z,11.10
2022-11-18T18:14:13.172Z,11.10
2022-11-18T18:16:44.912Z,11.00
2022-11-18T18:19:14.176Z,11.00
2022-11-18T18:21:41.105Z,11.00
2022-11-18T18:24:08.445Z,10.90
2022-11-18T18:26:35.557Z,11.00
2022-11-18T18:29:03.496Z,10.90
2022-11-18T18:31:33.541Z,10.90
2022-11-18T18:34:01.003Z,11.00
2022-11-18T18:36:28.167Z,11.00
2022-11-18T18:38:56.188Z,11.30
2022-11-18T18:41:23.543Z,11.10
2022-11-18T18:43:50.744Z,11.50
2022-11-18T18:46:28.645Z,11.20
2022-11-18T18:48:55.643Z,11.30
2022-11-18T18:51:22.717Z,11.30
2022-11-18T18:53:49.657Z,11.30
2022-11-18T18:56:16.677Z,11.30
2022-11-18T18:58:43.712Z,11.30
2022-11-18T19:01:15.256Z,11.30
2022-11-18T19:03:42.846Z,11.30
2022-11-18T19:09:08.395Z,11.30
2022-11-18T19:11:54.567Z,11.30
2022-11-18T19:14:22.122Z,11.30
2022-11-18T19:16:49.145Z,11.30
2022-11-18T19:19:17.865Z,11.30
2022-11-18T19:21:47.622Z,11.30
2022-11-18T19:24:42.451Z,11.30
2022-11-18T19:27:01.730Z,11.30
2022-11-18T19:29:28.711Z,11.30
2022-11-18T19:31:55.752Z,11.50
2022-11-18T19:34:22.735Z,11.30
2022-11-18T19:36:50.083Z,11.30
2022-11-18T19:39:17.270Z,11.50
2022-11-18T19:41:44.525Z,11.20
2022-11-18T19:44:11.581Z,11.20
2022-11-18T19:46:38.898Z,11.20
2022-11-18T19:49:05.936Z,11.20
2022-11-18T19:51:34.112Z,11.20
2022-11-18T19:54:01.071Z,11.20
2022-11-18T19:56:28.066Z,11.10
2022-11-18T19:58:55.037Z,11.10
2022-11-18T20:01:23.813Z,11.00
2022-11-18T20:03:52.438Z,10.90
2022-11-18T20:06:20.546Z,11.10
2022-11-18T20:08:47.858Z,10.70
2022-11-18T20:11:16.206Z,10.70
2022-11-18T20:13:45.257Z,10.70
2022-11-18T20:16:12.238Z,10.70
2022-11-18T20:18:39.296Z,10.60
2022-11-18T20:21:10.448Z,10.50
2022-11-18T20:23:38.160Z,10.50
2022-11-18T20:26:06.166Z,10.70
2022-11-18T20:28:34.276Z,10.40
2022-11-18T20:31:01.385Z,10.40
2022-11-18T20:33:28.466Z,10.30
2022-11-18T20:35:55.473Z,10.40
2022-11-18T20:38:22.542Z,10.30
2022-11-18T20:40:49.553Z,10.40
2022-11-18T20:43:17.068Z,10.30
2022-11-18T20:45:51.702Z,10.30
2022-11-18T20:48:18.651Z,10.30
2022-11-18T20:50:46.055Z,10.30
2022-11-18T20:53:14.145Z,10.30
2022-11-18T20:55:41.215Z,10.30
2022-11-18T20:58:08.461Z,10.30
2022-11-18T21:00:35.449Z,10.20
2022-11-18T21:03:02.430Z,10.50
2022-11-18T21:05:31.020Z,10.20
2022-11-18T21:07:57.992Z,10.10
2022-11-18T21:10:25.593Z,10.10
2022-11-18T21:13:10.972Z,10.00
2022-11-18T21:15:37.965Z,10.00
2022-11-18T21:18:05.002Z,10.00
2022-11-18T21:20:50.548Z,10.00
2022-11-18T21:23:17.546Z,10.30
2022-11-18T21:25:44.562Z,10.00
2022-11-18T21:28:11.810Z,9.90
2022-11-18T21:30:38.905Z,9.80
2022-11-18T21:33:06.177Z,9.60
2022-11-18T21:35:33.505Z,9.70
2022-11-18T21:38:04.095Z,9.60
2022-11-18T21:40:31.047Z,9.60
2022-11-18T21:42:57.971Z,9.50
2022-11-18T21:45:24.961Z,9.60
2022-11-18T21:47:51.937Z,9.60
2022-11-18T21:50:19.022Z,9.60
2022-11-18T21:52:46.048Z,9.70
2022-11-18T21:55:13.068Z,9.50
2022-11-18T21:57:40.856Z,9.60
2022-11-18T22:00:08.166Z,9.60
2022-11-18T22:02:35.164Z,9.50
2022-11-18T22:05:06.657Z,9.60
2022-11-18T22:07:33.867Z,9.50
2022-11-18T22:10:00.941Z,9.40
2022-11-18T22:12:27.989Z,9.50
2022-11-18T22:14:54.938Z,9.30
2022-11-18T22:17:21.931Z,9.50
2022-11-18T22:19:48.914Z,9.40
2022-11-18T22:22:15.958Z,9.60
2022-11-18T22:24:42.911Z,9.30
2022-11-18T22:27:11.486Z,9.30
2022-11-18T22:29:38.666Z,9.40
2022-11-18T22:32:05.577Z,9.30
2022-11-18T22:34:33.557Z,9.30
2022-11-18T22:37:00.570Z,9.70
2022-11-18T22:39:27.849Z,9.40
2022-11-18T22:42:13.131Z,9.40
2022-11-18T22:44:40.163Z,9.50
2022-11-18T22:47:07.119Z,9.40
2022-11-18T22:49:34.197Z,9.30
2022-11-18T22:52:01.238Z,9.30
2022-11-18T22:54:43.468Z,9.30
2022-11-18T22:57:10.469Z,9.20
2022-11-18T22:59:37.531Z,9.10
2022-11-18T23:02:04.542Z,9.10
2022-11-18T23:04:31.872Z,9.10
2022-11-18T23:06:58.977Z,9.10
2022-11-18T23:09:25.976Z,9.00
2022-11-18T23:12:11.536Z,9.10
2022-11-18T23:14:38.514Z,9.00
2022-11-18T23:17:05.684Z,8.90
2022-11-18T23:19:32.678Z,8.90
2022-11-18T23:21:59.619Z,8.90
2022-11-18T23:24:26.535Z,8.80
2022-11-18T23:26:53.469Z,8.80
2022-11-18T23:29:20.662Z,8.70
2022-11-18T23:31:48.131Z,8.70
2022-11-18T23:34:15.456Z,8.60
2022-11-18T23:36:42.704Z,8.60
2022-11-18T23:39:09.758Z,8.60
2022-11-18T23:41:36.831Z,8.60
2022-11-18T23:44:04.348Z,8.60
2022-11-18T23:46:31.831Z,8.50
2022-11-18T23:48:59.243Z,8.50
2022-11-18T23:51:26.200Z,8.40
2022-11-18T23:53:54.642Z,8.60
2022-11-18T23:56:22.639Z,8.50
2022-11-18T23:58:50.414Z,8.70
